Dighton, Kansas
Current Conditions -  °F | °C
As of 3:54 AM on Wednesday 26 Nov 2014 (Local Time) from KGCK Reporting Station
Overcast Overcast  
Wind Chill: 27°   Ceiling: 9500
Heat Index: 37°   Visibility: 10mi
Dew Point: 31°   Wind: 20mph
Humidity: 79%   Direction: 340°NNW
Pressure: 30.09"   Gusts: 25mph
Location:  38.48°N, 100.47°W
Report Text: KGCK 260954Z AUTO 34017G22KT 10SM OVC095 03/M01 A3009 RMK AO2 SLP191 T00281006
Loading
Personal Weather Stations






























Interactive Weather Map New forecast layout! Learn more

10-Day Weather Forecast

Advertisements
Track Severe Weather on mobile